sensor_id;sensor_type;location;lat;lon;timestamp;P1;durP1;ratioP1;P2;durP2;ratioP2
35562;SDS011;21665;40.108;18.302;2023-11-21T00:01:02;37.30;;;24.65;;
35562;SDS011;21665;40.108;18.302;2023-11-21T00:03:30;40.75;;;25.23;;
35562;SDS011;21665;40.108;18.302;2023-11-21T00:05:57;43.85;;;27.38;;
35562;SDS011;21665;40.108;18.302;2023-11-21T00:08:23;38.35;;;25.48;;
35562;SDS011;21665;40.108;18.302;2023-11-21T00:10:53;42.28;;;26.50;;
35562;SDS011;21665;40.108;18.302;2023-11-21T00:13:20;42.17;;;25.30;;
35562;SDS011;21665;40.108;18.302;2023-11-21T00:15:47;40.38;;;24.58;;
35562;SDS011;21665;40.108;18.302;2023-11-21T00:18:15;40.55;;;25.27;;
35562;SDS011;21665;40.108;18.302;2023-11-21T00:20:42;44.58;;;26.38;;
35562;SDS011;21665;40.108;18.302;2023-11-21T00:23:08;44.67;;;25.92;;
35562;SDS011;21665;40.108;18.302;2023-11-21T00:25:35;38.70;;;25.40;;
35562;SDS011;21665;40.108;18.302;2023-11-21T00:28:01;36.05;;;24.90;;
35562;SDS011;21665;40.108;18.302;2023-11-21T00:30:28;36.85;;;25.50;;
35562;SDS011;21665;40.108;18.302;2023-11-21T00:32:57;43.50;;;26.08;;
35562;SDS011;21665;40.108;18.302;2023-11-21T00:35:25;34.08;;;24.42;;
35562;SDS011;21665;40.108;18.302;2023-11-21T00:37:51;39.47;;;24.02;;
35562;SDS011;21665;40.108;18.302;2023-11-21T00:40:18;43.67;;;24.25;;
35562;SDS011;21665;40.108;18.302;2023-11-21T00:42:48;47.72;;;23.50;;
35562;SDS011;21665;40.108;18.302;2023-11-21T00:45:14;41.50;;;24.80;;
35562;SDS011;21665;40.108;18.302;2023-11-21T00:47:44;38.10;;;22.92;;
35562;SDS011;21665;40.108;18.302;2023-11-21T00:50:10;37.95;;;24.13;;
35562;SDS011;21665;40.108;18.302;2023-11-21T00:52:37;39.78;;;22.90;;
35562;SDS011;21665;40.108;18.302;2023-11-21T00:55:04;31.58;;;21.98;;
35562;SDS011;21665;40.108;18.302;2023-11-21T00:57:33;32.60;;;21.90;;
35562;SDS011;21665;40.108;18.302;2023-11-21T01:00:00;38.38;;;22.92;;
35562;SDS011;21665;40.108;18.302;2023-11-21T01:02:26;38.50;;;22.77;;
35562;SDS011;21665;40.108;18.302;2023-11-21T01:04:53;34.50;;;22.33;;
35562;SDS011;21665;40.108;18.302;2023-11-21T01:07:19;32.28;;;20.60;;
35562;SDS011;21665;40.108;18.302;2023-11-21T01:09:46;29.75;;;21.08;;
35562;SDS011;21665;40.108;18.302;2023-11-21T01:12:12;29.95;;;20.45;;
35562;SDS011;21665;40.108;18.302;2023-11-21T01:14:39;27.60;;;19.60;;
35562;SDS011;21665;40.108;18.302;2023-11-21T01:17:06;29.25;;;19.70;;
35562;SDS011;21665;40.108;18.302;2023-11-21T01:19:32;25.80;;;20.17;;
35562;SDS011;21665;40.108;18.302;2023-11-21T01:21:59;29.95;;;20.52;;
35562;SDS011;21665;40.108;18.302;2023-11-21T01:24:26;30.42;;;20.67;;
35562;SDS011;21665;40.108;18.302;2023-11-21T01:26:52;26.48;;;19.15;;
35562;SDS011;21665;40.108;18.302;2023-11-21T01:29:19;29.45;;;20.98;;
35562;SDS011;21665;40.108;18.302;2023-11-21T01:31:45;38.88;;;22.83;;
35562;SDS011;21665;40.108;18.302;2023-11-21T01:34:12;29.20;;;20.85;;
35562;SDS011;21665;40.108;18.302;2023-11-21T01:36:43;34.45;;;21.52;;
35562;SDS011;21665;40.108;18.302;2023-11-21T01:39:12;39.30;;;22.50;;
35562;SDS011;21665;40.108;18.302;2023-11-21T01:41:41;31.45;;;21.83;;
35562;SDS011;21665;40.108;18.302;2023-11-21T01:44:11;32.45;;;22.00;;
35562;SDS011;21665;40.108;18.302;2023-11-21T01:46:38;30.90;;;20.73;;
35562;SDS011;21665;40.108;18.302;2023-11-21T01:49:06;25.55;;;19.77;;
35562;SDS011;21665;40.108;18.302;2023-11-21T01:51:32;40.63;;;22.25;;
35562;SDS011;21665;40.108;18.302;2023-11-21T01:54:02;28.30;;;21.00;;
35562;SDS011;21665;40.108;18.302;2023-11-21T01:56:30;34.63;;;21.58;;
35562;SDS011;21665;40.108;18.302;2023-11-21T01:58:58;34.20;;;21.48;;
35562;SDS011;21665;40.108;18.302;2023-11-21T02:01:24;28.33;;;20.15;;
35562;SDS011;21665;40.108;18.302;2023-11-21T02:03:52;37.45;;;21.13;;
35562;SDS011;21665;40.108;18.302;2023-11-21T02:06:19;33.17;;;20.85;;
35562;SDS011;21665;40.108;18.302;2023-11-21T02:08:45;38.47;;;20.90;;
35562;SDS011;21665;40.108;18.302;2023-11-21T02:11:12;37.40;;;21.08;;
35562;SDS011;21665;40.108;18.302;2023-11-21T02:13:39;63.20;;;20.98;;
35562;SDS011;21665;40.108;18.302;2023-11-21T02:16:09;34.65;;;20.23;;
35562;SDS011;21665;40.108;18.302;2023-11-21T02:18:38;29.73;;;19.52;;
35562;SDS011;21665;40.108;18.302;2023-11-21T02:21:05;29.02;;;18.35;;
35562;SDS011;21665;40.108;18.302;2023-11-21T02:23:32;28.88;;;17.88;;
35562;SDS011;21665;40.108;18.302;2023-11-21T02:25:59;43.17;;;20.38;;
35562;SDS011;21665;40.108;18.302;2023-11-21T02:28:29;29.15;;;19.30;;
35562;SDS011;21665;40.108;18.302;2023-11-21T02:30:56;33.17;;;18.67;;
35562;SDS011;21665;40.108;18.302;2023-11-21T02:33:24;33.45;;;18.02;;
35562;SDS011;21665;40.108;18.302;2023-11-21T02:35:51;33.78;;;19.80;;
35562;SDS011;21665;40.108;18.302;2023-11-21T02:38:23;40.65;;;17.98;;
35562;SDS011;21665;40.108;18.302;2023-11-21T02:40:49;36.83;;;16.67;;
35562;SDS011;21665;40.108;18.302;2023-11-21T02:43:16;41.72;;;19.48;;
35562;SDS011;21665;40.108;18.302;2023-11-21T02:45:42;38.00;;;17.15;;
35562;SDS011;21665;40.108;18.302;2023-11-21T02:48:09;38.95;;;19.60;;
35562;SDS011;21665;40.108;18.302;2023-11-21T02:50:35;40.47;;;18.05;;
35562;SDS011;21665;40.108;18.302;2023-11-21T02:53:06;42.80;;;18.95;;
35562;SDS011;21665;40.108;18.302;2023-11-21T02:55:32;37.10;;;19.15;;
35562;SDS011;21665;40.108;18.302;2023-11-21T02:58:01;39.67;;;17.92;;
35562;SDS011;21665;40.108;18.302;2023-11-21T03:00:29;49.88;;;19.38;;
35562;SDS011;21665;40.108;18.302;2023-11-21T03:02:56;33.88;;;18.17;;
35562;SDS011;21665;40.108;18.302;2023-11-21T03:05:22;26.55;;;16.60;;
35562;SDS011;21665;40.108;18.302;2023-11-21T03:07:49;29.23;;;18.13;;
35562;SDS011;21665;40.108;18.302;2023-11-21T03:10:15;72.97;;;20.50;;
35562;SDS011;21665;40.108;18.302;2023-11-21T03:12:42;35.03;;;17.33;;
35562;SDS011;21665;40.108;18.302;2023-11-21T03:15:10;52.17;;;20.65;;
35562;SDS011;21665;40.108;18.302;2023-11-21T03:17:36;38.83;;;17.85;;
35562;SDS011;21665;40.108;18.302;2023-11-21T03:20:03;24.23;;;16.17;;
35562;SDS011;21665;40.108;18.302;2023-11-21T03:22:30;37.85;;;18.73;;
35562;SDS011;21665;40.108;18.302;2023-11-21T03:24:57;34.78;;;17.50;;
35562;SDS011;21665;40.108;18.302;2023-11-21T03:27:26;31.45;;;17.70;;
35562;SDS011;21665;40.108;18.302;2023-11-21T03:29:53;26.50;;;16.40;;
35562;SDS011;21665;40.108;18.302;2023-11-21T03:32:20;32.63;;;17.98;;
35562;SDS011;21665;40.108;18.302;2023-11-21T03:34:53;29.70;;;17.35;;
35562;SDS011;21665;40.108;18.302;2023-11-21T03:37:22;34.75;;;17.17;;
35562;SDS011;21665;40.108;18.302;2023-11-21T03:39:48;40.95;;;18.30;;
35562;SDS011;21665;40.108;18.302;2023-11-21T03:42:15;51.35;;;16.88;;
35562;SDS011;21665;40.108;18.302;2023-11-21T03:44:41;38.88;;;16.75;;
35562;SDS011;21665;40.108;18.302;2023-11-21T03:47:08;26.30;;;15.30;;
35562;SDS011;21665;40.108;18.302;2023-11-21T03:49:35;44.63;;;17.23;;
35562;SDS011;21665;40.108;18.302;2023-11-21T03:52:05;35.10;;;17.08;;
35562;SDS011;21665;40.108;18.302;2023-11-21T03:54:33;29.23;;;16.40;;
35562;SDS011;21665;40.108;18.302;2023-11-21T03:56:59;33.80;;;16.42;;
35562;SDS011;21665;40.108;18.302;2023-11-21T03:59:26;43.15;;;17.65;;
35562;SDS011;21665;40.108;18.302;2023-11-21T04:01:54;30.48;;;15.98;;
35562;SDS011;21665;40.108;18.302;2023-11-21T04:04:23;29.50;;;16.25;;
35562;SDS011;21665;40.108;18.302;2023-11-21T04:06:49;45.28;;;16.88;;
35562;SDS011;21665;40.108;18.302;2023-11-21T04:09:17;48.10;;;17.17;;
35562;SDS011;21665;40.108;18.302;2023-11-21T04:11:44;69.32;;;21.27;;
35562;SDS011;21665;40.108;18.302;2023-11-21T04:14:14;37.67;;;17.85;;
35562;SDS011;21665;40.108;18.302;2023-11-21T04:16:40;50.28;;;19.98;;
35562;SDS011;21665;40.108;18.302;2023-11-21T04:19:07;31.20;;;16.98;;
35562;SDS011;21665;40.108;18.302;2023-11-21T04:21:40;38.75;;;18.33;;
35562;SDS011;21665;40.108;18.302;2023-11-21T04:24:07;28.00;;;16.60;;
35562;SDS011;21665;40.108;18.302;2023-11-21T04:26:34;30.30;;;16.90;;
35562;SDS011;21665;40.108;18.302;2023-11-21T04:29:00;28.58;;;15.10;;
35562;SDS011;21665;40.108;18.302;2023-11-21T04:31:27;26.35;;;14.88;;
35562;SDS011;21665;40.108;18.302;2023-11-21T04:33:53;30.30;;;15.43;;
35562;SDS011;21665;40.108;18.302;2023-11-21T04:36:19;30.80;;;16.25;;
35562;SDS011;21665;40.108;18.302;2023-11-21T04:38:46;29.40;;;15.95;;
35562;SDS011;21665;40.108;18.302;2023-11-21T04:41:12;36.88;;;15.75;;
35562;SDS011;21665;40.108;18.302;2023-11-21T04:43:38;28.08;;;15.57;;
35562;SDS011;21665;40.108;18.302;2023-11-21T04:46:05;24.10;;;14.77;;
35562;SDS011;21665;40.108;18.302;2023-11-21T04:48:32;29.40;;;15.23;;
35562;SDS011;21665;40.108;18.302;2023-11-21T04:50:59;33.08;;;15.10;;
35562;SDS011;21665;40.108;18.302;2023-11-21T04:53:25;28.48;;;14.25;;
35562;SDS011;21665;40.108;18.302;2023-11-21T04:55:52;26.33;;;13.95;;
35562;SDS011;21665;40.108;18.302;2023-11-21T04:58:18;25.77;;;14.48;;
35562;SDS011;21665;40.108;18.302;2023-11-21T05:00:46;28.58;;;14.93;;
35562;SDS011;21665;40.108;18.302;2023-11-21T05:03:13;24.48;;;13.73;;
35562;SDS011;21665;40.108;18.302;2023-11-21T05:05:39;36.10;;;17.92;;
35562;SDS011;21665;40.108;18.302;2023-11-21T05:08:05;33.03;;;15.98;;
35562;SDS011;21665;40.108;18.302;2023-11-21T05:10:32;27.25;;;14.80;;
35562;SDS011;21665;40.108;18.302;2023-11-21T05:12:58;27.25;;;14.35;;
35562;SDS011;21665;40.108;18.302;2023-11-21T05:15:25;22.02;;;13.90;;
35562;SDS011;21665;40.108;18.302;2023-11-21T05:17:53;21.48;;;13.32;;
35562;SDS011;21665;40.108;18.302;2023-11-21T05:20:19;24.17;;;13.48;;
35562;SDS011;21665;40.108;18.302;2023-11-21T05:22:49;29.00;;;14.23;;
35562;SDS011;21665;40.108;18.302;2023-11-21T05:25:16;28.83;;;14.55;;
35562;SDS011;21665;40.108;18.302;2023-11-21T05:27:44;21.15;;;13.85;;
35562;SDS011;21665;40.108;18.302;2023-11-21T05:30:14;28.27;;;15.35;;
35562;SDS011;21665;40.108;18.302;2023-11-21T05:32:40;26.48;;;15.82;;
35562;SDS011;21665;40.108;18.302;2023-11-21T05:35:12;20.27;;;14.23;;
35562;SDS011;21665;40.108;18.302;2023-11-21T05:37:42;30.20;;;14.73;;
35562;SDS011;21665;40.108;18.302;2023-11-21T05:40:09;27.02;;;15.55;;
35562;SDS011;21665;40.108;18.302;2023-11-21T05:42:36;27.60;;;16.58;;
35562;SDS011;21665;40.108;18.302;2023-11-21T05:45:05;33.35;;;16.38;;
35562;SDS011;21665;40.108;18.302;2023-11-21T05:47:36;28.48;;;16.83;;
35562;SDS011;21665;40.108;18.302;2023-11-21T05:50:13;24.52;;;15.95;;
35562;SDS011;21665;40.108;18.302;2023-11-21T05:52:41;28.40;;;16.90;;
35562;SDS011;21665;40.108;18.302;2023-11-21T05:55:09;29.85;;;15.93;;
35562;SDS011;21665;40.108;18.302;2023-11-21T05:57:39;24.90;;;16.27;;
35562;SDS011;21665;40.108;18.302;2023-11-21T06:00:08;30.45;;;16.50;;
35562;SDS011;21665;40.108;18.302;2023-11-21T06:02:40;31.90;;;16.52;;
35562;SDS011;21665;40.108;18.302;2023-11-21T14:39:27;19.85;;;9.52;;
35562;SDS011;21665;40.108;18.302;2023-11-21T14:42:34;15.90;;;9.20;;
35562;SDS011;21665;40.108;18.302;2023-11-21T14:45:08;14.07;;;10.25;;
35562;SDS011;21665;40.108;18.302;2023-11-21T14:47:38;10.68;;;9.18;;
35562;SDS011;21665;40.108;18.302;2023-11-21T14:50:10;10.40;;;8.80;;
35562;SDS011;21665;40.108;18.302;2023-11-21T14:52:55;10.10;;;8.43;;
35562;SDS011;21665;40.108;18.302;2023-11-21T14:55:25;14.02;;;8.80;;
35562;SDS011;21665;40.108;18.302;2023-11-21T14:58:00;14.05;;;8.90;;
35562;SDS011;21665;40.108;18.302;2023-11-21T15:00:32;10.60;;;8.68;;
35562;SDS011;21665;40.108;18.302;2023-11-21T15:03:02;10.20;;;8.68;;
35562;SDS011;21665;40.108;18.302;2023-11-21T15:05:30;18.73;;;8.82;;
35562;SDS011;21665;40.108;18.302;2023-11-21T15:07:57;13.73;;;9.02;;
35562;SDS011;21665;40.108;18.302;2023-11-21T15:10:39;11.63;;;8.75;;
35562;SDS011;21665;40.108;18.302;2023-11-21T15:13:21;11.40;;;8.75;;
35562;SDS011;21665;40.108;18.302;2023-11-21T15:15:54;13.95;;;9.23;;
35562;SDS011;21665;40.108;18.302;2023-11-21T15:18:22;14.15;;;9.77;;
35562;SDS011;21665;40.108;18.302;2023-11-21T15:20:50;14.63;;;8.98;;
35562;SDS011;21665;40.108;18.302;2023-11-21T15:23:17;11.88;;;9.45;;
35562;SDS011;21665;40.108;18.302;2023-11-21T15:25:45;17.90;;;9.00;;
35562;SDS011;21665;40.108;18.302;2023-11-21T15:28:11;15.02;;;8.80;;
35562;SDS011;21665;40.108;18.302;2023-11-21T15:30:38;21.92;;;9.40;;
35562;SDS011;21665;40.108;18.302;2023-11-21T15:33:05;17.73;;;8.77;;
35562;SDS011;21665;40.108;18.302;2023-11-21T15:35:42;14.40;;;7.78;;
35562;SDS011;21665;40.108;18.302;2023-11-21T15:38:10;18.13;;;10.73;;
35562;SDS011;21665;40.108;18.302;2023-11-21T15:40:38;10.63;;;9.05;;
35562;SDS011;21665;40.108;18.302;2023-11-21T15:43:05;15.40;;;7.78;;
35562;SDS011;21665;40.108;18.302;2023-11-21T15:45:32;12.32;;;8.57;;
35562;SDS011;21665;40.108;18.302;2023-11-21T15:47:59;19.65;;;9.82;;
35562;SDS011;21665;40.108;18.302;2023-11-21T15:50:27;11.95;;;8.23;;
35562;SDS011;21665;40.108;18.302;2023-11-21T15:52:57;14.38;;;9.00;;
35562;SDS011;21665;40.108;18.302;2023-11-21T15:55:24;16.70;;;9.00;;
35562;SDS011;21665;40.108;18.302;2023-11-21T15:57:51;14.95;;;9.40;;
35562;SDS011;21665;40.108;18.302;2023-11-21T16:00:18;16.92;;;9.05;;
35562;SDS011;21665;40.108;18.302;2023-11-21T16:02:47;14.23;;;9.02;;
35562;SDS011;21665;40.108;18.302;2023-11-21T16:05:13;13.70;;;8.43;;
35562;SDS011;21665;40.108;18.302;2023-11-21T16:07:40;18.10;;;8.25;;
35562;SDS011;21665;40.108;18.302;2023-11-21T16:10:07;16.42;;;8.50;;
35562;SDS011;21665;40.108;18.302;2023-11-21T16:12:40;18.20;;;8.02;;
35562;SDS011;21665;40.108;18.302;2023-11-21T16:15:10;15.30;;;8.10;;
35562;SDS011;21665;40.108;18.302;2023-11-21T16:17:37;20.80;;;8.20;;
35562;SDS011;21665;40.108;18.302;2023-11-21T16:20:04;16.77;;;8.77;;
35562;SDS011;21665;40.108;18.302;2023-11-21T16:22:36;15.95;;;8.20;;
35562;SDS011;21665;40.108;18.302;2023-11-21T16:25:03;14.73;;;8.50;;
35562;SDS011;21665;40.108;18.302;2023-11-21T16:27:32;12.43;;;7.55;;
35562;SDS011;21665;40.108;18.302;2023-11-21T16:29:59;11.40;;;8.57;;
35562;SDS011;21665;40.108;18.302;2023-11-21T16:32:25;14.18;;;8.32;;
35562;SDS011;21665;40.108;18.302;2023-11-21T16:34:53;20.65;;;9.57;;
35562;SDS011;21665;40.108;18.302;2023-11-21T16:37:21;16.95;;;8.65;;
35562;SDS011;21665;40.108;18.302;2023-11-21T16:39:47;15.70;;;8.80;;
35562;SDS011;21665;40.108;18.302;2023-11-21T16:42:13;12.73;;;8.77;;
35562;SDS011;21665;40.108;18.302;2023-11-21T16:44:40;16.15;;;8.25;;
35562;SDS011;21665;40.108;18.302;2023-11-21T16:47:07;14.20;;;8.98;;
35562;SDS011;21665;40.108;18.302;2023-11-21T16:49:35;17.25;;;9.43;;
35562;SDS011;21665;40.108;18.302;2023-11-21T16:52:05;29.58;;;9.90;;
35562;SDS011;21665;40.108;18.302;2023-11-21T16:54:34;16.40;;;8.40;;
35562;SDS011;21665;40.108;18.302;2023-11-21T16:57:01;16.15;;;10.27;;
35562;SDS011;21665;40.108;18.302;2023-11-21T16:59:28;27.67;;;10.30;;
35562;SDS011;21665;40.108;18.302;2023-11-21T17:01:56;14.75;;;8.55;;
35562;SDS011;21665;40.108;18.302;2023-11-21T17:04:25;23.88;;;10.77;;
35562;SDS011;21665;40.108;18.302;2023-11-21T17:07:11;13.10;;;8.43;;
35562;SDS011;21665;40.108;18.302;2023-11-21T17:09:59;22.95;;;10.93;;
35562;SDS011;21665;40.108;18.302;2023-11-21T17:12:25;19.52;;;10.57;;
35562;SDS011;21665;40.108;18.302;2023-11-21T17:14:53;13.20;;;8.57;;
35562;SDS011;21665;40.108;18.302;2023-11-21T17:17:19;17.20;;;8.93;;
35562;SDS011;21665;40.108;18.302;2023-11-21T17:19:46;19.95;;;8.65;;
35562;SDS011;21665;40.108;18.302;2023-11-21T17:22:13;16.90;;;8.45;;
35562;SDS011;21665;40.108;18.302;2023-11-21T17:24:45;17.20;;;9.00;;
35562;SDS011;21665;40.108;18.302;2023-11-21T17:27:53;15.75;;;8.35;;
35562;SDS011;21665;40.108;18.302;2023-11-21T17:30:21;16.02;;;8.32;;
35562;SDS011;21665;40.108;18.302;2023-11-21T17:32:48;20.35;;;7.95;;
35562;SDS011;21665;40.108;18.302;2023-11-21T17:35:15;15.13;;;8.10;;
35562;SDS011;21665;40.108;18.302;2023-11-21T17:37:48;15.20;;;8.02;;
35562;SDS011;21665;40.108;18.302;2023-11-21T17:40:43;12.52;;;7.60;;
35562;SDS011;21665;40.108;18.302;2023-11-21T17:43:15;17.75;;;8.50;;
35562;SDS011;21665;40.108;18.302;2023-11-21T17:46:34;18.42;;;8.25;;
35562;SDS011;21665;40.108;18.302;2023-11-21T17:49:02;18.52;;;8.63;;
35562;SDS011;21665;40.108;18.302;2023-11-21T17:51:28;11.65;;;8.85;;
35562;SDS011;21665;40.108;18.302;2023-11-21T17:53:56;18.40;;;9.77;;
35562;SDS011;21665;40.108;18.302;2023-11-21T17:56:27;17.02;;;9.23;;
35562;SDS011;21665;40.108;18.302;2023-11-21T17:58:54;21.38;;;12.32;;
35562;SDS011;21665;40.108;18.302;2023-11-21T18:01:22;31.95;;;12.23;;
35562;SDS011;21665;40.108;18.302;2023-11-21T18:03:49;16.73;;;11.48;;
35562;SDS011;21665;40.108;18.302;2023-11-21T18:06:16;15.45;;;9.23;;
35562;SDS011;21665;40.108;18.302;2023-11-21T18:08:42;18.10;;;9.15;;
35562;SDS011;21665;40.108;18.302;2023-11-21T18:11:09;18.08;;;8.75;;
35562;SDS011;21665;40.108;18.302;2023-11-21T18:13:36;23.20;;;9.77;;
35562;SDS011;21665;40.108;18.302;2023-11-21T18:16:03;15.85;;;9.30;;
35562;SDS011;21665;40.108;18.302;2023-11-21T18:18:31;22.58;;;10.70;;
35562;SDS011;21665;40.108;18.302;2023-11-21T18:21:04;14.27;;;9.20;;
35562;SDS011;21665;40.108;18.302;2023-11-21T18:23:49;21.67;;;10.20;;
35562;SDS011;21665;40.108;18.302;2023-11-21T18:26:16;25.80;;;12.50;;
35562;SDS011;21665;40.108;18.302;2023-11-21T18:28:43;21.15;;;11.55;;
35562;SDS011;21665;40.108;18.302;2023-11-21T18:31:09;19.35;;;10.70;;
35562;SDS011;21665;40.108;18.302;2023-11-21T18:33:36;22.08;;;11.38;;
35562;SDS011;21665;40.108;18.302;2023-11-21T18:36:05;29.80;;;12.10;;
35562;SDS011;21665;40.108;18.302;2023-11-21T18:38:33;17.73;;;9.25;;
35562;SDS011;21665;40.108;18.302;2023-11-21T18:41:01;15.85;;;8.77;;
35562;SDS011;21665;40.108;18.302;2023-11-21T18:43:28;33.20;;;9.90;;
35562;SDS011;21665;40.108;18.302;2023-11-21T18:45:55;26.73;;;11.55;;
35562;SDS011;21665;40.108;18.302;2023-11-21T18:48:21;22.33;;;11.95;;
35562;SDS011;21665;40.108;18.302;2023-11-21T18:50:47;21.60;;;9.43;;
35562;SDS011;21665;40.108;18.302;2023-11-21T18:53:17;18.23;;;9.10;;
35562;SDS011;21665;40.108;18.302;2023-11-21T18:55:43;20.90;;;9.68;;
35562;SDS011;21665;40.108;18.302;2023-11-21T18:58:10;26.33;;;9.07;;
35562;SDS011;21665;40.108;18.302;2023-11-21T19:00:36;24.60;;;8.68;;
35562;SDS011;21665;40.108;18.302;2023-11-21T19:03:03;21.88;;;9.88;;
35562;SDS011;21665;40.108;18.302;2023-11-21T19:05:29;21.75;;;9.15;;
35562;SDS011;21665;40.108;18.302;2023-11-21T19:07:57;24.88;;;8.48;;
35562;SDS011;21665;40.108;18.302;2023-11-21T19:10:24;19.17;;;8.43;;
35562;SDS011;21665;40.108;18.302;2023-11-21T19:12:58;22.30;;;10.20;;
35562;SDS011;21665;40.108;18.302;2023-11-21T19:15:25;16.40;;;8.85;;
35562;SDS011;21665;40.108;18.302;2023-11-21T19:17:52;20.98;;;9.02;;
35562;SDS011;21665;40.108;18.302;2023-11-21T19:20:19;27.98;;;9.13;;
35562;SDS011;21665;40.108;18.302;2023-11-21T19:22:49;19.67;;;9.02;;
35562;SDS011;21665;40.108;18.302;2023-11-21T19:25:15;17.42;;;8.95;;
35562;SDS011;21665;40.108;18.302;2023-11-21T19:27:50;29.50;;;9.02;;
35562;SDS011;21665;40.108;18.302;2023-11-21T19:30:36;26.05;;;8.35;;
35562;SDS011;21665;40.108;18.302;2023-11-21T19:33:06;21.50;;;9.15;;
35562;SDS011;21665;40.108;18.302;2023-11-21T19:35:32;22.73;;;9.75;;
35562;SDS011;21665;40.108;18.302;2023-11-21T19:38:04;15.18;;;9.25;;
35562;SDS011;21665;40.108;18.302;2023-11-21T19:40:31;21.20;;;9.73;;
35562;SDS011;21665;40.108;18.302;2023-11-21T19:42:59;24.75;;;8.88;;
35562;SDS011;21665;40.108;18.302;2023-11-21T19:45:26;23.40;;;9.32;;
35562;SDS011;21665;40.108;18.302;2023-11-21T19:47:54;18.60;;;9.40;;
35562;SDS011;21665;40.108;18.302;2023-11-21T19:50:21;17.98;;;9.70;;
35562;SDS011;21665;40.108;18.302;2023-11-21T19:52:47;23.88;;;10.63;;
35562;SDS011;21665;40.108;18.302;2023-11-21T19:55:15;23.02;;;9.93;;
35562;SDS011;21665;40.108;18.302;2023-11-21T19:57:42;23.08;;;8.85;;
35562;SDS011;21665;40.108;18.302;2023-11-21T20:00:09;35.92;;;11.38;;
35562;SDS011;21665;40.108;18.302;2023-11-21T20:02:40;21.25;;;8.80;;
35562;SDS011;21665;40.108;18.302;2023-11-21T20:05:07;14.15;;;7.90;;
35562;SDS011;21665;40.108;18.302;2023-11-21T20:07:34;18.40;;;8.35;;
35562;SDS011;21665;40.108;18.302;2023-11-21T20:10:01;18.55;;;9.10;;
35562;SDS011;21665;40.108;18.302;2023-11-21T20:12:28;20.77;;;8.32;;
35562;SDS011;21665;40.108;18.302;2023-11-21T20:14:54;18.58;;;10.23;;
35562;SDS011;21665;40.108;18.302;2023-11-21T20:17:21;19.00;;;9.82;;
35562;SDS011;21665;40.108;18.302;2023-11-21T20:19:48;18.58;;;10.10;;
35562;SDS011;21665;40.108;18.302;2023-11-21T20:22:15;17.75;;;8.68;;
35562;SDS011;21665;40.108;18.302;2023-11-21T20:24:43;14.23;;;8.02;;
35562;SDS011;21665;40.108;18.302;2023-11-21T20:27:10;26.35;;;8.30;;
35562;SDS011;21665;40.108;18.302;2023-11-21T20:29:36;19.30;;;9.50;;
35562;SDS011;21665;40.108;18.302;2023-11-21T20:32:05;20.95;;;8.60;;
35562;SDS011;21665;40.108;18.302;2023-11-21T20:34:32;10.63;;;7.28;;
35562;SDS011;21665;40.108;18.302;2023-11-21T20:36:58;17.88;;;7.72;;
35562;SDS011;21665;40.108;18.302;2023-11-21T20:39:25;19.83;;;7.72;;
35562;SDS011;21665;40.108;18.302;2023-11-21T20:41:52;16.95;;;7.57;;
35562;SDS011;21665;40.108;18.302;2023-11-21T20:44:18;13.27;;;7.88;;
35562;SDS011;21665;40.108;18.302;2023-11-21T20:46:47;19.02;;;8.25;;
35562;SDS011;21665;40.108;18.302;2023-11-21T20:49:13;11.60;;;7.28;;
35562;SDS011;21665;40.108;18.302;2023-11-21T20:51:40;16.20;;;7.38;;
35562;SDS011;21665;40.108;18.302;2023-11-21T20:54:07;20.02;;;8.88;;
35562;SDS011;21665;40.108;18.302;2023-11-21T20:56:35;13.07;;;7.82;;
35562;SDS011;21665;40.108;18.302;2023-11-21T20:59:01;18.00;;;8.13;;
35562;SDS011;21665;40.108;18.302;2023-11-21T21:01:33;14.27;;;7.53;;
35562;SDS011;21665;40.108;18.302;2023-11-21T21:04:00;17.23;;;7.65;;
35562;SDS011;21665;40.108;18.302;2023-11-21T21:06:28;7.88;;;7.03;;
35562;SDS011;21665;40.108;18.302;2023-11-21T21:08:55;16.70;;;7.47;;
35562;SDS011;21665;40.108;18.302;2023-11-21T21:11:24;12.27;;;6.50;;
35562;SDS011;21665;40.108;18.302;2023-11-21T21:13:51;15.82;;;7.15;;
35562;SDS011;21665;40.108;18.302;2023-11-21T21:16:21;17.15;;;8.48;;
35562;SDS011;21665;40.108;18.302;2023-11-21T21:18:54;18.58;;;7.70;;
35562;SDS011;21665;40.108;18.302;2023-11-21T21:21:22;13.32;;;7.90;;
35562;SDS011;21665;40.108;18.302;2023-11-21T21:23:49;14.27;;;7.60;;
35562;SDS011;21665;40.108;18.302;2023-11-21T21:26:17;21.33;;;9.25;;
35562;SDS011;21665;40.108;18.302;2023-11-21T21:28:46;13.13;;;7.63;;
35562;SDS011;21665;40.108;18.302;2023-11-21T21:31:16;20.33;;;8.27;;
35562;SDS011;21665;40.108;18.302;2023-11-21T21:36:10;15.27;;;8.48;;
35562;SDS011;21665;40.108;18.302;2023-11-21T21:38:38;28.33;;;9.07;;
35562;SDS011;21665;40.108;18.302;2023-11-21T21:41:06;19.75;;;9.15;;
35562;SDS011;21665;40.108;18.302;2023-11-21T21:43:36;20.02;;;8.75;;
35562;SDS011;21665;40.108;18.302;2023-11-21T21:46:06;20.27;;;8.50;;
35562;SDS011;21665;40.108;18.302;2023-11-21T21:48:34;13.07;;;8.15;;
35562;SDS011;21665;40.108;18.302;2023-11-21T21:51:03;15.00;;;8.02;;
35562;SDS011;21665;40.108;18.302;2023-11-21T21:53:29;24.63;;;8.27;;
35562;SDS011;21665;40.108;18.302;2023-11-21T21:55:56;21.40;;;8.25;;
35562;SDS011;21665;40.108;18.302;2023-11-21T21:58:22;19.55;;;8.93;;
35562;SDS011;21665;40.108;18.302;2023-11-21T22:00:49;22.95;;;8.82;;
35562;SDS011;21665;40.108;18.302;2023-11-21T22:03:15;15.02;;;7.90;;
35562;SDS011;21665;40.108;18.302;2023-11-21T22:05:41;16.23;;;8.43;;
35562;SDS011;21665;40.108;18.302;2023-11-21T22:08:08;24.63;;;7.93;;
35562;SDS011;21665;40.108;18.302;2023-11-21T22:10:35;18.25;;;8.52;;
35562;SDS011;21665;40.108;18.302;2023-11-21T22:13:01;16.70;;;8.18;;
35562;SDS011;21665;40.108;18.302;2023-11-21T22:15:27;13.82;;;7.60;;
35562;SDS011;21665;40.108;18.302;2023-11-21T22:17:54;13.43;;;7.40;;
35562;SDS011;21665;40.108;18.302;2023-11-21T22:20:20;16.80;;;7.40;;
35562;SDS011;21665;40.108;18.302;2023-11-21T22:22:47;22.75;;;7.70;;
35562;SDS011;21665;40.108;18.302;2023-11-21T22:25:13;14.90;;;8.80;;
35562;SDS011;21665;40.108;18.302;2023-11-21T22:27:40;15.85;;;8.00;;
35562;SDS011;21665;40.108;18.302;2023-11-21T22:30:07;20.77;;;8.73;;
35562;SDS011;21665;40.108;18.302;2023-11-21T22:32:35;20.85;;;8.07;;
35562;SDS011;21665;40.108;18.302;2023-11-21T22:35:02;19.90;;;8.00;;
35562;SDS011;21665;40.108;18.302;2023-11-21T22:37:28;19.40;;;7.60;;
35562;SDS011;21665;40.108;18.302;2023-11-21T22:39:55;26.25;;;8.10;;
35562;SDS011;21665;40.108;18.302;2023-11-21T22:42:21;19.05;;;8.18;;
35562;SDS011;21665;40.108;18.302;2023-11-21T22:44:49;17.08;;;7.80;;
35562;SDS011;21665;40.108;18.302;2023-11-21T22:47:18;17.70;;;7.70;;
35562;SDS011;21665;40.108;18.302;2023-11-21T22:49:47;16.50;;;7.40;;
35562;SDS011;21665;40.108;18.302;2023-11-21T22:52:13;20.02;;;7.72;;
35562;SDS011;21665;40.108;18.302;2023-11-21T22:54:40;15.63;;;7.88;;
35562;SDS011;21665;40.108;18.302;2023-11-21T22:57:06;16.30;;;8.35;;
35562;SDS011;21665;40.108;18.302;2023-11-21T22:59:33;19.70;;;8.32;;